Time;durP1;ratioP1;P1;durP2;ratioP2;P2;SDS_P1;SDS_P2;PMS_P1;PMS_P2;Temp;Humidity;BMP_temperature;BMP_pressure;BME280_temperature;BME280_humidity;BME280_pressure;Samples;Min_cycle;Max_cycle;Signal;HPM_P1;HPM_P2
2022/09/28 00:00:51;;;;;;;;;;;;;;;;;;5024809;28;19919;-82
2022/09/28 00:03:38;;;;;;;;;;;;;;;;;;5012705;28;19924;-83
2022/09/28 00:06:24;;;;;;;;;;;;;;;;;;5019324;28;19928;-84
2022/09/28 00:09:11;;;;;;;;;;;;;;;;;;5003357;28;19948;-82
2022/09/28 00:11:58;;;;;;;;;;;;;;;;;;5007455;28;20567;-83
2022/09/28 00:14:45;;;;;;;;;;;;;;;;;;5009423;28;19931;-81
2022/09/28 00:17:31;;;;;;;;;;;;;;;;;;5010779;28;19913;-81
2022/09/28 00:20:18;;;;;;;;;;;;;;;;;;5009225;28;19928;-81
2022/09/28 00:23:05;;;;;;;;;;;;;;;;;;5001346;28;20020;-81
2022/09/28 00:25:51;;;;;;;;;;;;;;;;;;5021051;28;19921;-81
2022/09/28 00:28:38;;;;;;;;;;;;;;;;;;5008912;28;19930;-81
2022/09/28 00:31:25;;;;;;;;;;;;;;;;;;5014041;28;19921;-79
2022/09/28 00:34:11;;;;;;;;;;;;;;;;;;5007922;28;19929;-80
2022/09/28 00:36:58;;;;;;;;;;;;;;;;;;5013910;28;19920;-80
2022/09/28 00:39:44;;;;;;;;;;;;;;;;;;5011626;28;19948;-79
2022/09/28 00:42:31;;;;;;;;;;;;;;;;;;5012211;28;19913;-82
2022/09/28 00:45:17;;;;;;;;;;;;;;;;;;5005310;28;20387;-83
2022/09/28 00:48:03;;;;;;;;;;;;;;;;;;5023095;28;19917;-81
2022/09/28 00:50:50;;;;;;;;;;;;;;;;;;5022323;28;19967;-82
2022/09/28 00:53:37;;;;;;;;;;;;;;;;;;5025544;28;19921;-83
2022/09/28 00:56:23;;;;;;;;;;;;;;;;;;5003790;28;19929;-83
2022/09/28 00:59:10;;;;;;;;;;;;;;;;;;5001168;28;19927;-83
2022/09/28 01:01:56;;;;;;;;;;;;;;;;;;5010387;28;20287;-83
2022/09/28 01:04:43;;;;;;;;;;;;;;;;;;5006727;28;19921;-83
2022/09/28 01:07:29;;;;;;;;;;;;;;;;;;4997254;28;20285;-84
2022/09/28 01:10:16;;;;;;;;;;;;;;;;;;5007550;28;19955;-84
2022/09/28 01:13:02;;;;;;;;;;;;;;;;;;5014590;28;19921;-83
2022/09/28 01:15:49;;;;;;;;;;;;;;;;;;5024488;28;19929;-84
2022/09/28 01:18:35;;;;;;;;;;;;;;;;;;5011850;28;19931;-83
2022/09/28 01:21:22;;;;;;;;;;;;;;;;;;5001260;28;19921;-83
2022/09/28 01:24:09;;;;;;;;;;;;;;;;;;5007122;28;19929;-83
2022/09/28 01:26:56;;;;;;;;;;;;;;;;;;5013787;28;19920;-83
2022/09/28 01:29:43;;;;;;;;;;;;;;;;;;5007829;28;19923;-83
2022/09/28 01:32:29;;;;;;;;;;;;;;;;;;5020333;28;19925;-83
2022/09/28 01:35:16;;;;;;;;;;;;;;;;;;5011505;28;19932;-82
2022/09/28 01:38:02;;;;;;;;;;;;;;;;;;5010180;28;19921;-83
2022/09/28 01:40:48;;;;;;;;;;;;;;;;;;5008384;28;20016;-83
2022/09/28 01:43:35;;;;;;;;;;;;;;;;;;5003258;28;19923;-83
2022/09/28 01:46:21;;;;;;;;;;;;;;;;;;5007275;28;19924;-83
2022/09/28 01:49:08;;;;;;;;;;;;;;;;;;5004951;28;19939;-82
2022/09/28 01:51:55;;;;;;;;;;;;;;;;;;5029931;28;19923;-82
2022/09/28 01:54:41;;;;;;;;;;;;;;;;;;5012811;28;19928;-84
2022/09/28 01:57:28;;;;;;;;;;;;;;;;;;5017251;28;19929;-84
2022/09/28 02:00:16;;;;;;;;;;;;;;;;;;5008636;28;19925;-84
2022/09/28 02:03:02;;;;;;;;;;;;;;;;;;5009255;28;20304;-83
2022/09/28 02:05:49;;;;;;;;;;;;;;;;;;5010289;28;19927;-84
2022/09/28 02:08:35;;;;;;;;;;;;;;;;;;5022178;28;19920;-84
2022/09/28 02:11:22;;;;;;;;;;;;;;;;;;5005840;28;19921;-83
2022/09/28 02:14:08;;;;;;;;;;;;;;;;;;5008951;28;19921;-83
2022/09/28 02:16:55;;;;;;;;;;;;;;;;;;5021918;28;19929;-85
2022/09/28 02:19:41;;;;;;;;;;;;;;;;;;5023109;28;19925;-84
2022/09/28 02:22:28;;;;;;;;;;;;;;;;;;5015797;28;20033;-83
2022/09/28 02:25:14;;;;;;;;;;;;;;;;;;5008791;28;19943;-83
2022/09/28 02:28:01;;;;;;;;;;;;;;;;;;5010204;28;19920;-84
2022/09/28 02:30:47;;;;;;;;;;;;;;;;;;5002239;28;19917;-85
2022/09/28 02:33:34;;;;;;;;;;;;;;;;;;5010539;28;19948;-85
2022/09/28 02:36:20;;;;;;;;;;;;;;;;;;5002473;28;20403;-85
2022/09/28 02:39:07;;;;;;;;;;;;;;;;;;4999665;28;20373;-85
2022/09/28 02:41:53;;;;;;;;;;;;;;;;;;5009380;28;19921;-84
2022/09/28 02:44:39;;;;;;;;;;;;;;;;;;5006593;28;19920;-86
2022/09/28 02:47:27;;;;;;;;;;;;;;;;;;5002505;28;19923;-85
2022/09/28 02:50:13;;;;;;;;;;;;;;;;;;5007936;28;19925;-84
2022/09/28 02:53:00;;;;;;;;;;;;;;;;;;5025364;28;19917;-85
2022/09/28 02:55:46;;;;;;;;;;;;;;;;;;5005345;28;19929;-84
2022/09/28 02:58:33;;;;;;;;;;;;;;;;;;5009529;28;19918;-83
2022/09/28 03:01:19;;;;;;;;;;;;;;;;;;5009406;28;20303;-84
2022/09/28 03:04:05;;;;;;;;;;;;;;;;;;5008188;28;19917;-83
2022/09/28 03:06:52;;;;;;;;;;;;;;;;;;5009306;28;20568;-83
2022/09/28 03:09:38;;;;;;;;;;;;;;;;;;5007785;28;19913;-84
2022/09/28 03:12:25;;;;;;;;;;;;;;;;;;5017136;28;19913;-84
2022/09/28 03:15:11;;;;;;;;;;;;;;;;;;5005766;28;19929;-84
2022/09/28 03:17:58;;;;;;;;;;;;;;;;;;5017790;28;19921;-84
2022/09/28 03:20:46;;;;;;;;;;;;;;;;;;5006362;28;20378;-84
2022/09/28 03:23:32;;;;;;;;;;;;;;;;;;5011692;28;20403;-83
2022/09/28 03:26:19;;;;;;;;;;;;;;;;;;5011684;28;20303;-83
2022/09/28 03:29:05;;;;;;;;;;;;;;;;;;5003511;28;20384;-84
2022/09/28 03:31:52;;;;;;;;;;;;;;;;;;5019418;28;19917;-84
2022/09/28 03:34:38;;;;;;;;;;;;;;;;;;5013351;28;19965;-84
2022/09/28 03:37:25;;;;;;;;;;;;;;;;;;5008191;28;19921;-84
2022/09/28 03:40:11;;;;;;;;;;;;;;;;;;5000892;28;20434;-85
2022/09/28 03:42:58;;;;;;;;;;;;;;;;;;4998775;28;19921;-84
2022/09/28 03:45:45;;;;;;;;;;;;;;;;;;5014551;28;19923;-86
2022/09/28 03:48:31;;;;;;;;;;;;;;;;;;5011993;28;20284;-86
2022/09/28 03:51:18;;;;;;;;;;;;;;;;;;5012857;28;19929;-84
2022/09/28 03:54:04;;;;;;;;;;;;;;;;;;5014174;28;19944;-85
2022/09/28 03:56:51;;;;;;;;;;;;;;;;;;5005892;28;19922;-85
2022/09/28 03:59:37;;;;;;;;;;;;;;;;;;5014439;28;19917;-85
2022/09/28 04:02:24;;;;;;;;;;;;;;;;;;5013212;28;20122;-88
2022/09/28 04:05:10;;;;;;;;;;;;;;;;;;5013430;28;19924;-88
2022/09/28 04:07:57;;;;;;;;;;;;;;;;;;5013026;28;19917;-88
2022/09/28 04:10:44;;;;;;;;;;;;;;;;;;5007517;28;19917;-87
2022/09/28 04:13:31;;;;;;;;;;;;;;;;;;5012077;28;19917;-88
2022/09/28 04:16:18;;;;;;;;;;;;;;;;;;5011268;28;20471;-87
2022/09/28 04:19:07;;;;;;;;;;;;;;;;;;5006494;28;19939;-84
2022/09/28 04:21:53;;;;;;;;;;;;;;;;;;5015233;28;19951;-85
2022/09/28 04:24:42;;;;;;;;;;;;;;;;;;5010657;28;19921;-85
2022/09/28 04:30:36;;;;;;;;;;;;;;;;;;5025161;28;19928;-85
2022/09/28 04:33:23;;;;;;;;;;;;;;;;;;5004373;28;19924;-84
2022/09/28 04:36:09;;;;;;;;;;;;;;;;;;5010541;28;20300;-84
2022/09/28 04:38:56;;;;;;;;;;;;;;;;;;5011323;28;19921;-83
2022/09/28 04:41:42;;;;;;;;;;;;;;;;;;5016992;28;19921;-84
2022/09/28 04:44:32;;;;;;;;;;;;;;;;;;5011708;28;20434;-83
2022/09/28 04:47:18;;;;;;;;;;;;;;;;;;5003208;28;19928;-84
2022/09/28 04:50:05;;;;;;;;;;;;;;;;;;5011809;28;19929;-85
2022/09/28 04:52:51;;;;;;;;;;;;;;;;;;5020867;28;19917;-85
2022/09/28 04:55:38;;;;;;;;;;;;;;;;;;5016217;28;19929;-86
2022/09/28 04:58:25;;;;;;;;;;;;;;;;;;5008327;28;20269;-87
2022/09/28 05:01:11;;;;;;;;;;;;;;;;;;5001223;28;19925;-83
2022/09/28 05:03:58;;;;;;;;;;;;;;;;;;5011068;28;19918;-85
2022/09/28 05:06:44;;;;;;;;;;;;;;;;;;5006952;28;20147;-85
2022/09/28 05:09:30;;;;;;;;;;;;;;;;;;5010369;28;20376;-84
2022/09/28 05:12:17;;;;;;;;;;;;;;;;;;5003731;28;19914;-85
2022/09/28 05:15:04;;;;;;;;;;;;;;;;;;5026345;28;19930;-86
2022/09/28 05:17:50;;;;;;;;;;;;;;;;;;5010951;28;20031;-88
2022/09/28 05:20:37;;;;;;;;;;;;;;;;;;4997258;28;20746;-88
2022/09/28 05:23:23;;;;;;;;;;;;;;;;;;4998783;28;20328;-86
2022/09/28 05:26:09;;;;;;;;;;;;;;;;;;5011817;28;19917;-86
2022/09/28 05:28:56;;;;;;;;;;;;;;;;;;4999010;28;19917;-86
2022/09/28 05:31:42;;;;;;;;;;;;;;;;;;5003453;28;20281;-88
2022/09/28 05:34:29;;;;;;;;;;;;;;;;;;5000838;28;19921;-87
2022/09/28 05:37:15;;;;;;;;;;;;;;;;;;5006877;28;19925;-88
2022/09/28 05:40:20;;;;;;;;;;;;;;;;;;4993345;28;19921;-88
2022/09/28 05:43:07;;;;;;;;;;;;;;;;;;5011983;28;19921;-88
2022/09/28 05:45:53;;;;;;;;;;;;;;;;;;5017906;28;19920;-90
2022/09/28 05:48:39;;;;;;;;;;;;;;;;;;5027666;28;19921;-87
2022/09/28 05:51:26;;;;;;;;;;;;;;;;;;5011903;28;19954;-89
2022/09/28 05:54:12;;;;;;;;;;;;;;;;;;5025516;28;19917;-87
2022/09/28 05:56:59;;;;;;;;;;;;;;;;;;5012954;28;20355;-89
2022/09/28 05:59:45;;;;;;;;;;;;;;;;;;5009955;28;19932;-85
2022/09/28 06:02:32;;;;;;;;;;;;;;;;;;5010025;28;19917;-86
2022/09/28 06:05:18;;;;;;;;;;;;;;;;;;5017293;28;19913;-87
2022/09/28 06:08:05;;;;;;;;;;;;;;;;;;5008967;28;20408;-84
2022/09/28 06:10:51;;;;;;;;;;;;;;;;;;5009223;28;19920;-85
2022/09/28 06:13:41;;;;;;;;;;;;;;;;;;5007576;28;20407;-86
2022/09/28 06:16:27;;;;;;;;;;;;;;;;;;5003530;28;20020;-85
2022/09/28 06:19:16;;;;;;;;;;;;;;;;;;5011179;28;19917;-86
2022/09/28 06:22:02;;;;;;;;;;;;;;;;;;5012372;28;19927;-86
2022/09/28 06:24:49;;;;;;;;;;;;;;;;;;5010242;28;19913;-84
2022/09/28 06:27:36;;;;;;;;;;;;;;;;;;5009313;28;19921;-83
2022/09/28 06:30:25;;;;;;;;;;;;;;;;;;5008976;28;19928;-84
2022/09/28 06:33:12;;;;;;;;;;;;;;;;;;5010461;28;19921;-87
2022/09/28 06:35:58;;;;;;;;;;;;;;;;;;5008030;28;20295;-87
2022/09/28 06:38:45;;;;;;;;;;;;;;;;;;5005529;28;19928;-86
2022/09/28 06:41:32;;;;;;;;;;;;;;;;;;5009781;28;19927;-86
2022/09/28 06:44:18;;;;;;;;;;;;;;;;;;5009634;28;19923;-88
2022/09/28 06:47:05;;;;;;;;;;;;;;;;;;5002880;28;20385;-88
2022/09/28 06:49:54;;;;;;;;;;;;;;;;;;5007259;28;19921;-88
2022/09/28 06:52:40;;;;;;;;;;;;;;;;;;4996255;28;19928;-88
2022/09/28 06:55:27;;;;;;;;;;;;;;;;;;5007343;28;19926;-87
2022/09/28 06:58:13;;;;;;;;;;;;;;;;;;5008066;28;19928;-88
2022/09/28 07:01:00;;;;;;;;;;;;;;;;;;5008274;28;19923;-86
2022/09/28 07:03:46;;;;;;;;;;;;;;;;;;5011078;28;19923;-87
2022/09/28 07:06:33;;;;;;;;;;;;;;;;;;5006989;28;19928;-85
2022/09/28 07:09:19;;;;;;;;;;;;;;;;;;5018081;28;19917;-85
2022/09/28 07:12:09;;;;;;;;;;;;;;;;;;5003346;28;19921;-85
2022/09/28 07:14:56;;;;;;;;;;;;;;;;;;5004109;28;19921;-81
2022/09/28 07:17:42;;;;;;;;;;;;;;;;;;5005070;28;19925;-83
2022/09/28 07:20:30;;;;;;;;;;;;;;;;;;4999542;28;19913;-84
2022/09/28 07:23:17;;;;;;;;;;;;;;;;;;5022213;28;19921;-83
2022/09/28 07:26:03;;;;;;;;;;;;;;;;;;5009664;28;20055;-84
2022/09/28 07:28:50;;;;;;;;;;;;;;;;;;5007401;28;19917;-82
2022/09/28 07:31:36;;;;;;;;;;;;;;;;;;5007562;28;19921;-83
2022/09/28 07:34:23;;;;;;;;;;;;;;;;;;5009772;28;20368;-82
2022/09/28 07:37:10;;;;;;;;;;;;;;;;;;5006697;28;19925;-83
2022/09/28 07:43:02;;;;;;;;;;;;;;;;;;5020720;28;19917;-83
2022/09/28 07:45:49;;;;;;;;;;;;;;;;;;5010456;28;20380;-82
2022/09/28 07:48:36;;;;;;;;;;;;;;;;;;5006992;28;20392;-82
2022/09/28 07:51:23;;;;;;;;;;;;;;;;;;5009826;28;19929;-82
2022/09/28 07:54:09;;;;;;;;;;;;;;;;;;5016001;28;19921;-83
2022/09/28 07:56:56;;;;;;;;;;;;;;;;;;5007641;28;19925;-82
2022/09/28 07:59:42;;;;;;;;;;;;;;;;;;5008323;28;19944;-82
2022/09/28 08:02:31;;;;;;;;;;;;;;;;;;5008847;28;19928;-83
2022/09/28 08:05:17;;;;;;;;;;;;;;;;;;4997440;28;20278;-83
2022/09/28 08:08:04;;;;;;;;;;;;;;;;;;5000485;28;20412;-83
2022/09/28 08:10:51;;;;;;;;;;;;;;;;;;5013006;28;20390;-84
2022/09/28 08:13:38;;;;;;;;;;;;;;;;;;4978865;28;19921;-83
2022/09/28 08:16:24;;;;;;;;;;;;;;;;;;5009974;28;21271;-83
2022/09/28 08:19:11;;;;;;;;;;;;;;;;;;5007187;28;19917;-83
2022/09/28 08:21:58;;;;;;;;;;;;;;;;;;5013791;28;19924;-83
2022/09/28 08:24:44;;;;;;;;;;;;;;;;;;5009955;28;19913;-83
2022/09/28 08:27:31;;;;;;;;;;;;;;;;;;5008748;28;19939;-83
2022/09/28 08:30:18;;;;;;;;;;;;;;;;;;5010558;28;19920;-83
2022/09/28 08:33:06;;;;;;;;;;;;;;;;;;5012218;28;19921;-83
2022/09/28 08:35:52;;;;;;;;;;;;;;;;;;5008013;28;19933;-82
2022/09/28 08:38:39;;;;;;;;;;;;;;;;;;5008959;28;19925;-82
2022/09/28 08:41:25;;;;;;;;;;;;;;;;;;5010981;28;19925;-82
2022/09/28 08:44:12;;;;;;;;;;;;;;;;;;5022153;28;19917;-82
2022/09/28 08:46:59;;;;;;;;;;;;;;;;;;5014041;28;20431;-83
2022/09/28 08:49:45;;;;;;;;;;;;;;;;;;5009583;28;19968;-83
2022/09/28 08:52:32;;;;;;;;;;;;;;;;;;5023758;28;19921;-83
2022/09/28 08:55:18;;;;;;;;;;;;;;;;;;5006449;28;19935;-80
2022/09/28 08:58:05;;;;;;;;;;;;;;;;;;5010048;28;19927;-79
2022/09/28 09:00:52;;;;;;;;;;;;;;;;;;5021965;28;19928;-80
2022/09/28 09:03:40;;;;;;;;;;;;;;;;;;5011118;28;19939;-82
2022/09/28 09:06:27;;;;;;;;;;;;;;;;;;5009140;28;19924;-81
2022/09/28 09:09:13;;;;;;;;;;;;;;;;;;5009761;28;20020;-82
2022/09/28 09:12:00;;;;;;;;;;;;;;;;;;5011341;28;19958;-81
2022/09/28 09:14:46;;;;;;;;;;;;;;;;;;5009246;28;19928;-82
2022/09/28 09:17:33;;;;;;;;;;;;;;;;;;5004977;28;19925;-81
2022/09/28 09:20:19;;;;;;;;;;;;;;;;;;5009916;28;19928;-81
2022/09/28 09:23:06;;;;;;;;;;;;;;;;;;5011928;28;19927;-82
2022/09/28 09:25:53;;;;;;;;;;;;;;;;;;5011173;28;19920;-81
2022/09/28 09:28:40;;;;;;;;;;;;;;;;;;5011596;28;20304;-81
2022/09/28 09:31:27;;;;;;;;;;;;;;;;;;5005998;28;19929;-82
2022/09/28 09:34:14;;;;;;;;;;;;;;;;;;5012990;28;19925;-81
2022/09/28 09:37:00;;;;;;;;;;;;;;;;;;5009265;28;20312;-82
2022/09/28 09:39:47;;;;;;;;;;;;;;;;;;5005673;28;19928;-82
2022/09/28 09:42:34;;;;;;;;;;;;;;;;;;5018587;28;20301;-81
2022/09/28 09:45:21;;;;;;;;;;;;;;;;;;5005714;28;19917;-82
2022/09/28 09:48:07;;;;;;;;;;;;;;;;;;5010063;28;19927;-81
2022/09/28 09:50:54;;;;;;;;;;;;;;;;;;5002072;28;19925;-82
2022/09/28 09:53:40;;;;;;;;;;;;;;;;;;5009427;28;19921;-82
2022/09/28 09:56:27;;;;;;;;;;;;;;;;;;5020574;28;19933;-82
2022/09/28 09:59:13;;;;;;;;;;;;;;;;;;5002458;28;19921;-82
2022/09/28 10:02:00;;;;;;;;;;;;;;;;;;5007830;28;19932;-83
2022/09/28 10:04:46;;;;;;;;;;;;;;;;;;5004731;28;20562;-82
2022/09/28 10:07:33;;;;;;;;;;;;;;;;;;5006840;28;19921;-82
2022/09/28 10:10:20;;;;;;;;;;;;;;;;;;5007159;28;19924;-82
2022/09/28 10:13:06;;;;;;;;;;;;;;;;;;5008747;28;19943;-81
2022/09/28 10:15:54;;;;;;;;;;;;;;;;;;5009716;28;20408;-82
2022/09/28 10:18:40;;;;;;;;;;;;;;;;;;5009716;28;19924;-82
2022/09/28 10:21:27;;;;;;;;;;;;;;;;;;5008984;28;19913;-82
2022/09/28 10:24:13;;;;;;;;;;;;;;;;;;5007847;28;20304;-82
2022/09/28 10:27:00;;;;;;;;;;;;;;;;;;5012821;28;20364;-82
2022/09/28 10:29:46;;;;;;;;;;;;;;;;;;5003300;28;19929;-83
2022/09/28 10:32:33;;;;;;;;;;;;;;;;;;5005468;28;19951;-81
2022/09/28 10:35:20;;;;;;;;;;;;;;;;;;5005233;28;20398;-82
2022/09/28 10:38:06;;;;;;;;;;;;;;;;;;4988321;28;19929;-82
2022/09/28 10:40:54;;;;;;;;;;;;;;;;;;5009156;28;19917;-81
2022/09/28 10:43:41;;;;;;;;;;;;;;;;;;5001588;28;20795;-82
2022/09/28 10:46:27;;;;;;;;;;;;;;;;;;5023323;28;19913;-82
2022/09/28 10:49:14;;;;;;;;;;;;;;;;;;5010163;28;19921;-82
2022/09/28 10:52:00;;;;;;;;;;;;;;;;;;5010680;28;20640;-82
2022/09/28 10:54:46;;;;;;;;;;;;;;;;;;5011002;28;19923;-82
2022/09/28 10:57:33;;;;;;;;;;;;;;;;;;5006428;28;19925;-82
2022/09/28 11:00:20;;;;;;;;;;;;;;;;;;5009479;28;19913;-81
2022/09/28 11:03:06;;;;;;;;;;;;;;;;;;5018970;28;20396;-81
2022/09/28 11:05:53;;;;;;;;;;;;;;;;;;5003918;28;19921;-82
2022/09/28 11:08:39;;;;;;;;;;;;;;;;;;5000455;28;19921;-82
2022/09/28 11:11:26;;;;;;;;;;;;;;;;;;5003463;28;19975;-82
2022/09/28 11:14:12;;;;;;;;;;;;;;;;;;5006685;28;19918;-82
2022/09/28 11:16:59;;;;;;;;;;;;;;;;;;5022326;28;19939;-80
2022/09/28 11:19:46;;;;;;;;;;;;;;;;;;5008804;28;19926;-81
2022/09/28 11:22:33;;;;;;;;;;;;;;;;;;5005129;28;19924;-80
2022/09/28 11:25:20;;;;;;;;;;;;;;;;;;4993261;28;20459;-80
2022/09/28 11:28:06;;;;;;;;;;;;;;;;;;5010108;28;19928;-79
2022/09/28 11:30:53;;;;;;;;;;;;;;;;;;5005425;28;19921;-81
2022/09/28 11:33:40;;;;;;;;;;;;;;;;;;5011342;28;19979;-81
2022/09/28 11:36:26;;;;;;;;;;;;;;;;;;5001569;28;19925;-80
2022/09/28 11:39:13;;;;;;;;;;;;;;;;;;5006353;28;19928;-80
2022/09/28 11:41:59;;;;;;;;;;;;;;;;;;4985652;28;20520;-80
2022/09/28 11:44:46;;;;;;;;;;;;;;;;;;5010833;28;20199;-81
2022/09/28 11:47:32;;;;;;;;;;;;;;;;;;5009891;28;19924;-79
2022/09/28 11:50:19;;;;;;;;;;;;;;;;;;5010347;28;20427;-80
2022/09/28 11:53:05;;;;;;;;;;;;;;;;;;5028281;28;19923;-79
2022/09/28 11:55:52;;;;;;;;;;;;;;;;;;5022144;28;19922;-79
2022/09/28 11:58:38;;;;;;;;;;;;;;;;;;5010440;28;19917;-78
2022/09/28 12:01:25;;;;;;;;;;;;;;;;;;5019240;28;19913;-79
2022/09/28 12:04:11;;;;;;;;;;;;;;;;;;5009966;28;19928;-78
2022/09/28 12:06:58;;;;;;;;;;;;;;;;;;5012889;28;19924;-79
2022/09/28 12:09:44;;;;;;;;;;;;;;;;;;5007717;28;19921;-79
2022/09/28 12:12:31;;;;;;;;;;;;;;;;;;5023242;28;20402;-78
2022/09/28 12:15:18;;;;;;;;;;;;;;;;;;5012634;28;19928;-80
2022/09/28 12:18:04;;;;;;;;;;;;;;;;;;5013157;28;19921;-78
2022/09/28 12:20:50;;;;;;;;;;;;;;;;;;5029207;28;20406;-79
2022/09/28 12:23:37;;;;;;;;;;;;;;;;;;5011327;28;19924;-79
2022/09/28 12:26:23;;;;;;;;;;;;;;;;;;5009811;28;19925;-80
2022/09/28 12:29:10;;;;;;;;;;;;;;;;;;5009601;28;19927;-78
2022/09/28 12:31:56;;;;;;;;;;;;;;;;;;5021606;28;19921;-79
2022/09/28 12:34:43;;;;;;;;;;;;;;;;;;5025971;28;19925;-81
2022/09/28 12:37:29;;;;;;;;;;;;;;;;;;5018745;28;19921;-80
2022/09/28 12:40:16;;;;;;;;;;;;;;;;;;5006839;28;19921;-79
2022/09/28 12:43:03;;;;;;;;;;;;;;;;;;5027485;28;19928;-80
2022/09/28 12:45:49;;;;;;;;;;;;;;;;;;5026164;28;19917;-79
2022/09/28 12:48:36;;;;;;;;;;;;;;;;;;5021576;28;19925;-81
2022/09/28 12:51:22;;;;;;;;;;;;;;;;;;5008828;28;20396;-81
2022/09/28 12:54:09;;;;;;;;;;;;;;;;;;5026889;28;19924;-81
2022/09/28 12:56:55;;;;;;;;;;;;;;;;;;5013906;28;19939;-81
2022/09/28 12:59:42;;;;;;;;;;;;;;;;;;5015603;28;19917;-80
2022/09/28 13:02:28;;;;;;;;;;;;;;;;;;5027916;28;19921;-80
2022/09/28 13:05:15;;;;;;;;;;;;;;;;;;5022972;28;19924;-80
2022/09/28 13:08:02;;;;;;;;;;;;;;;;;;5006840;28;20480;-80
2022/09/28 13:10:49;;;;;;;;;;;;;;;;;;5017098;28;19922;-80
2022/09/28 13:13:35;;;;;;;;;;;;;;;;;;5012724;28;19917;-80
2022/09/28 13:16:22;;;;;;;;;;;;;;;;;;5009263;28;19932;-81
2022/09/28 13:19:08;;;;;;;;;;;;;;;;;;5010691;28;19928;-81
2022/09/28 13:21:55;;;;;;;;;;;;;;;;;;5024473;28;19923;-80
2022/09/28 13:24:43;;;;;;;;;;;;;;;;;;5009533;28;20569;-80
2022/09/28 13:27:29;;;;;;;;;;;;;;;;;;5001696;28;19921;-80
2022/09/28 13:30:18;;;;;;;;;;;;;;;;;;5025984;28;19917;-80
2022/09/28 13:33:04;;;;;;;;;;;;;;;;;;5004413;28;20396;-80
2022/09/28 13:35:51;;;;;;;;;;;;;;;;;;5024053;28;19968;-80
2022/09/28 13:38:37;;;;;;;;;;;;;;;;;;5026783;28;19921;-81
2022/09/28 13:41:27;;;;;;;;;;;;;;;;;;5005315;28;20004;-79
2022/09/28 13:44:19;;;;;;;;;;;;;;;;;;5010326;28;19917;-79
2022/09/28 13:47:05;;;;;;;;;;;;;;;;;;5023052;28;20304;-79
2022/09/28 13:49:51;;;;;;;;;;;;;;;;;;5004028;28;19929;-81
2022/09/28 13:52:38;;;;;;;;;;;;;;;;;;4999291;28;19928;-80
2022/09/28 13:55:25;;;;;;;;;;;;;;;;;;5007859;28;19967;-79
2022/09/28 13:58:11;;;;;;;;;;;;;;;;;;5019030;28;19955;-79
2022/09/28 14:00:58;;;;;;;;;;;;;;;;;;5016803;28;19955;-79
2022/09/28 14:03:44;;;;;;;;;;;;;;;;;;5008043;28;19924;-80
2022/09/28 14:06:31;;;;;;;;;;;;;;;;;;5005503;28;20757;-80
2022/09/28 14:09:17;;;;;;;;;;;;;;;;;;5006306;28;20440;-79
2022/09/28 14:12:04;;;;;;;;;;;;;;;;;;5000461;28;19917;-79
2022/09/28 14:14:51;;;;;;;;;;;;;;;;;;5010219;28;19940;-81
2022/09/28 14:17:37;;;;;;;;;;;;;;;;;;5026416;28;19921;-81
2022/09/28 14:20:24;;;;;;;;;;;;;;;;;;5015061;28;20455;-80
2022/09/28 14:23:10;;;;;;;;;;;;;;;;;;5012640;28;19917;-80
2022/09/28 14:25:57;;;;;;;;;;;;;;;;;;5001563;28;19932;-81
2022/09/28 14:28:43;;;;;;;;;;;;;;;;;;5007974;28;19925;-80
2022/09/28 14:31:30;;;;;;;;;;;;;;;;;;5008577;28;19921;-80
2022/09/28 14:34:16;;;;;;;;;;;;;;;;;;5010102;28;19917;-80
2022/09/28 14:43:30;;;;;;;;;;;;;;;;;;4962431;28;19941;-79
2022/09/28 14:46:16;;;;;;;;;;;;;;;;;;5010876;28;19924;-79
2022/09/28 14:49:03;;;;;;;;;;;;;;;;;;5025220;28;19948;-79
2022/09/28 14:51:49;;;;;;;;;;;;;;;;;;5019363;28;19932;-79
2022/09/28 14:54:36;;;;;;;;;;;;;;;;;;5009041;28;19940;-81
2022/09/28 14:57:22;;;;;;;;;;;;;;;;;;5018621;28;19940;-81
2022/09/28 15:00:09;;;;;;;;;;;;;;;;;;5009504;28;20415;-80
2022/09/28 15:02:56;;;;;;;;;;;;;;;;;;5021692;28;19924;-81
2022/09/28 15:05:42;;;;;;;;;;;;;;;;;;5020476;28;19921;-81
2022/09/28 15:08:29;;;;;;;;;;;;;;;;;;5021200;28;19924;-81
2022/09/28 15:11:15;;;;;;;;;;;;;;;;;;5020365;28;20023;-81
2022/09/28 15:14:05;;;;;;;;;;;;;;;;;;5019356;28;20301;-81
2022/09/28 15:16:51;;;;;;;;;;;;;;;;;;5019540;28;19931;-81
2022/09/28 15:19:38;;;;;;;;;;;;;;;;;;5023124;28;19926;-81
2022/09/28 15:22:24;;;;;;;;;;;;;;;;;;5006793;28;19925;-80
2022/09/28 15:25:12;;;;;;;;;;;;;;;;;;5025854;28;19933;-80
2022/09/28 15:28:02;;;;;;;;;;;;;;;;;;5010372;28;19928;-80
2022/09/28 15:30:48;;;;;;;;;;;;;;;;;;5024076;28;19921;-80
2022/09/28 15:36:40;;;;;;;;;;;;;;;;;;5022614;28;20412;-79
2022/09/28 15:39:27;;;;;;;;;;;;;;;;;;5017359;28;19932;-80
2022/09/28 15:42:13;;;;;;;;;;;;;;;;;;5022098;28;19921;-80
2022/09/28 15:45:00;;;;;;;;;;;;;;;;;;5028953;28;19976;-80
2022/09/28 15:47:46;;;;;;;;;;;;;;;;;;5023435;28;19924;-80
2022/09/28 15:50:35;;;;;;;;;;;;;;;;;;5026210;28;20388;-81
2022/09/28 15:53:21;;;;;;;;;;;;;;;;;;5031218;28;20407;-79
2022/09/28 15:56:09;;;;;;;;;;;;;;;;;;5026643;28;20012;-80
2022/09/28 15:58:55;;;;;;;;;;;;;;;;;;5003773;28;20300;-80
2022/09/28 16:01:42;;;;;;;;;;;;;;;;;;5026416;28;19923;-81
2022/09/28 16:04:28;;;;;;;;;;;;;;;;;;5027190;28;19925;-81
2022/09/28 16:07:15;;;;;;;;;;;;;;;;;;5024214;28;19921;-81
2022/09/28 16:10:01;;;;;;;;;;;;;;;;;;5025307;28;19920;-81
2022/09/28 16:12:48;;;;;;;;;;;;;;;;;;4999367;28;19931;-80
2022/09/28 16:15:34;;;;;;;;;;;;;;;;;;5009413;28;19918;-80
2022/09/28 16:18:22;;;;;;;;;;;;;;;;;;5023930;28;20399;-81
2022/09/28 16:21:12;;;;;;;;;;;;;;;;;;5025232;28;20384;-82
2022/09/28 16:23:58;;;;;;;;;;;;;;;;;;5030461;28;19928;-79
2022/09/28 16:26:45;;;;;;;;;;;;;;;;;;5025355;28;20397;-79
2022/09/28 16:29:31;;;;;;;;;;;;;;;;;;5013151;28;19917;-79
2022/09/28 16:32:19;;;;;;;;;;;;;;;;;;5011283;28;20365;-79
2022/09/28 16:35:05;;;;;;;;;;;;;;;;;;5024160;28;19924;-80
2022/09/28 16:37:52;;;;;;;;;;;;;;;;;;5008003;28;20510;-77
2022/09/28 16:40:38;;;;;;;;;;;;;;;;;;5006087;28;19917;-77
2022/09/28 16:43:25;;;;;;;;;;;;;;;;;;5023753;28;19921;-76
2022/09/28 16:46:12;;;;;;;;;;;;;;;;;;5024522;28;19940;-77
2022/09/28 16:49:02;;;;;;;;;;;;;;;;;;5026686;28;19921;-77
2022/09/28 16:51:48;;;;;;;;;;;;;;;;;;5024558;28;19929;-76
2022/09/28 16:57:40;;;;;;;;;;;;;;;;;;5024146;28;20546;-78
2022/09/28 17:00:28;;;;;;;;;;;;;;;;;;5019668;28;19933;-78
2022/09/28 17:03:14;;;;;;;;;;;;;;;;;;5009721;28;19923;-78
2022/09/28 17:06:01;;;;;;;;;;;;;;;;;;5023589;28;19939;-77
2022/09/28 17:08:47;;;;;;;;;;;;;;;;;;5023967;28;20342;-78
2022/09/28 17:11:33;;;;;;;;;;;;;;;;;;5026847;28;19917;-80
2022/09/28 17:14:22;;;;;;;;;;;;;;;;;;5025101;28;19921;-80
2022/09/28 17:17:08;;;;;;;;;;;;;;;;;;5019905;28;19929;-80
2022/09/28 17:19:55;;;;;;;;;;;;;;;;;;5021310;28;20285;-80
2022/09/28 17:22:41;;;;;;;;;;;;;;;;;;5027639;28;19929;-80
2022/09/28 17:25:28;;;;;;;;;;;;;;;;;;5008189;28;19921;-80
2022/09/28 17:28:14;;;;;;;;;;;;;;;;;;5011921;28;19913;-80
2022/09/28 17:31:01;;;;;;;;;;;;;;;;;;5028697;28;19959;-80
2022/09/28 17:33:47;;;;;;;;;;;;;;;;;;5025763;28;19921;-80
2022/09/28 17:36:34;;;;;;;;;;;;;;;;;;5026674;28;20312;-80
2022/09/28 17:39:22;;;;;;;;;;;;;;;;;;5012896;28;19923;-79
2022/09/28 17:42:08;;;;;;;;;;;;;;;;;;5022504;28;20296;-77
2022/09/28 17:44:55;;;;;;;;;;;;;;;;;;5010291;28;19924;-77
2022/09/28 17:47:41;;;;;;;;;;;;;;;;;;5006876;28;20380;-76
2022/09/28 17:50:28;;;;;;;;;;;;;;;;;;4997394;28;19936;-78
2022/09/28 17:53:15;;;;;;;;;;;;;;;;;;5003532;28;19917;-76
2022/09/28 17:56:01;;;;;;;;;;;;;;;;;;4984330;28;19960;-76
2022/09/28 17:58:48;;;;;;;;;;;;;;;;;;5002863;28;19937;-79
2022/09/28 18:01:34;;;;;;;;;;;;;;;;;;4983372;28;19925;-78
2022/09/28 18:04:21;;;;;;;;;;;;;;;;;;5006363;28;19922;-80
2022/09/28 18:07:07;;;;;;;;;;;;;;;;;;4989697;28;20130;-79
2022/09/28 18:09:55;;;;;;;;;;;;;;;;;;4989527;28;19924;-76
2022/09/28 18:12:42;;;;;;;;;;;;;;;;;;4987472;28;20281;-79
2022/09/28 18:15:28;;;;;;;;;;;;;;;;;;4985756;28;19921;-79
2022/09/28 18:18:15;;;;;;;;;;;;;;;;;;4985586;28;19929;-79
2022/09/28 18:21:01;;;;;;;;;;;;;;;;;;4988842;28;19918;-79
2022/09/28 18:23:48;;;;;;;;;;;;;;;;;;4989684;28;19932;-79
2022/09/28 18:26:34;;;;;;;;;;;;;;;;;;4982115;28;19928;-79
2022/09/28 18:29:21;;;;;;;;;;;;;;;;;;4983239;28;19918;-78
2022/09/28 18:32:07;;;;;;;;;;;;;;;;;;4999991;28;19921;-77
2022/09/28 18:34:54;;;;;;;;;;;;;;;;;;5001827;28;19924;-78
2022/09/28 18:37:40;;;;;;;;;;;;;;;;;;4999369;28;19933;-77
2022/09/28 18:40:27;;;;;;;;;;;;;;;;;;5003163;28;19929;-78
2022/09/28 18:43:13;;;;;;;;;;;;;;;;;;5003422;28;19917;-81
2022/09/28 18:46:00;;;;;;;;;;;;;;;;;;4986810;28;20340;-79
2022/09/28 18:48:47;;;;;;;;;;;;;;;;;;4977465;28;19932;-79
2022/09/28 18:51:34;;;;;;;;;;;;;;;;;;4989538;28;20416;-79
2022/09/28 18:54:21;;;;;;;;;;;;;;;;;;5014381;28;19913;-85
2022/09/28 18:57:08;;;;;;;;;;;;;;;;;;5028042;28;19993;-78
2022/09/28 18:59:54;;;;;;;;;;;;;;;;;;5028271;28;20414;-79
2022/09/28 19:02:41;;;;;;;;;;;;;;;;;;5018736;28;19923;-77
2022/09/28 19:05:27;;;;;;;;;;;;;;;;;;5043860;28;20407;-78
2022/09/28 19:08:14;;;;;;;;;;;;;;;;;;5026837;28;19939;-79
2022/09/28 19:11:00;;;;;;;;;;;;;;;;;;5037879;28;19921;-86
2022/09/28 19:13:47;;;;;;;;;;;;;;;;;;5026341;28;19920;-86
2022/09/28 19:16:33;;;;;;;;;;;;;;;;;;5016173;28;19929;-81